Terminal Aerodrome Forecast
Issued by NWS Memphis, TN

Home | Current Version | Previous Version | Text Only | Print | Product List | Glossary On
Versions: 1 2 3 4 5 6 7 8 9 10 11 12
000
FTUS44 KMEG 232300
TAFJBR
TAF
KJBR 232340Z 2400/2424 11007KT P6SM SKC
     FM240100 11005KT P6SM SKC
     FM241400 18010KT P6SM SCT050 SCT180
     FM242000 19017G27KT P6SM VCTS BKN040CB BKN150=

USA.gov is the U.S. government's official web portal to all federal, state and local government web resources and services.